sensor_id;sensor_type;location;lat;lon;timestamp;P1;durP1;ratioP1;P2;durP2;ratioP2
82372;SDS011;72000;42.828;23.382;2024-01-07T00:01:34;14.02;;;5.10;;
82372;SDS011;72000;42.828;23.382;2024-01-07T00:03:59;9.75;;;4.07;;
82372;SDS011;72000;42.828;23.382;2024-01-07T00:06:25;7.65;;;3.13;;
82372;SDS011;72000;42.828;23.382;2024-01-07T00:08:50;8.88;;;2.70;;
82372;SDS011;72000;42.828;23.382;2024-01-07T00:11:16;10.70;;;3.90;;
82372;SDS011;72000;42.828;23.382;2024-01-07T00:13:42;9.15;;;3.60;;
82372;SDS011;72000;42.828;23.382;2024-01-07T00:16:07;9.13;;;3.42;;
82372;SDS011;72000;42.828;23.382;2024-01-07T00:18:33;7.72;;;3.03;;
82372;SDS011;72000;42.828;23.382;2024-01-07T00:20:58;7.35;;;2.90;;
82372;SDS011;72000;42.828;23.382;2024-01-07T00:23:24;7.13;;;2.97;;
82372;SDS011;72000;42.828;23.382;2024-01-07T00:25:50;9.52;;;3.53;;
82372;SDS011;72000;42.828;23.382;2024-01-07T00:28:15;8.85;;;3.70;;
82372;SDS011;72000;42.828;23.382;2024-01-07T00:30:41;9.57;;;3.75;;
82372;SDS011;72000;42.828;23.382;2024-01-07T00:33:06;8.93;;;3.40;;
82372;SDS011;72000;42.828;23.382;2024-01-07T00:35:32;12.25;;;4.07;;
82372;SDS011;72000;42.828;23.382;2024-01-07T00:37:58;10.13;;;3.65;;
82372;SDS011;72000;42.828;23.382;2024-01-07T00:40:23;10.90;;;3.30;;
82372;SDS011;72000;42.828;23.382;2024-01-07T00:42:49;8.20;;;3.17;;
82372;SDS011;72000;42.828;23.382;2024-01-07T00:45:16;10.80;;;3.20;;
82372;SDS011;72000;42.828;23.382;2024-01-07T00:47:42;8.20;;;3.20;;
82372;SDS011;72000;42.828;23.382;2024-01-07T00:50:08;7.47;;;2.95;;
82372;SDS011;72000;42.828;23.382;2024-01-07T00:52:34;7.95;;;2.83;;
82372;SDS011;72000;42.828;23.382;2024-01-07T00:55:02;7.45;;;3.22;;
82372;SDS011;72000;42.828;23.382;2024-01-07T00:57:29;8.20;;;3.17;;
82372;SDS011;72000;42.828;23.382;2024-01-07T00:59:55;7.78;;;2.67;;
82372;SDS011;72000;42.828;23.382;2024-01-07T01:02:20;10.30;;;2.97;;
82372;SDS011;72000;42.828;23.382;2024-01-07T01:04:47;8.63;;;2.90;;
82372;SDS011;72000;42.828;23.382;2024-01-07T01:07:13;8.43;;;3.05;;
82372;SDS011;72000;42.828;23.382;2024-01-07T01:09:39;6.95;;;2.50;;
82372;SDS011;72000;42.828;23.382;2024-01-07T01:12:05;9.35;;;3.00;;
82372;SDS011;72000;42.828;23.382;2024-01-07T01:14:30;6.85;;;2.80;;
82372;SDS011;72000;42.828;23.382;2024-01-07T01:16:56;6.75;;;2.63;;
82372;SDS011;72000;42.828;23.382;2024-01-07T01:19:24;9.65;;;3.42;;
82372;SDS011;72000;42.828;23.382;2024-01-07T01:21:49;6.00;;;2.25;;
82372;SDS011;72000;42.828;23.382;2024-01-07T01:24:15;8.25;;;2.60;;
82372;SDS011;72000;42.828;23.382;2024-01-07T01:26:41;8.18;;;2.88;;
82372;SDS011;72000;42.828;23.382;2024-01-07T01:29:06;9.45;;;2.83;;
82372;SDS011;72000;42.828;23.382;2024-01-07T01:31:32;7.90;;;2.60;;
82372;SDS011;72000;42.828;23.382;2024-01-07T01:33:57;4.65;;;2.08;;
82372;SDS011;72000;42.828;23.382;2024-01-07T01:36:23;6.43;;;2.40;;
82372;SDS011;72000;42.828;23.382;2024-01-07T01:38:49;8.77;;;2.20;;
82372;SDS011;72000;42.828;23.382;2024-01-07T01:41:15;6.55;;;2.20;;
82372;SDS011;72000;42.828;23.382;2024-01-07T01:43:41;6.50;;;2.30;;
82372;SDS011;72000;42.828;23.382;2024-01-07T01:46:07;5.18;;;2.00;;
82372;SDS011;72000;42.828;23.382;2024-01-07T01:50:59;7.63;;;2.60;;
82372;SDS011;72000;42.828;23.382;2024-01-07T01:53:25;5.90;;;2.60;;
82372;SDS011;72000;42.828;23.382;2024-01-07T01:55:52;7.50;;;2.30;;
82372;SDS011;72000;42.828;23.382;2024-01-07T01:58:18;5.70;;;1.90;;
82372;SDS011;72000;42.828;23.382;2024-01-07T02:00:45;9.50;;;3.60;;
82372;SDS011;72000;42.828;23.382;2024-01-07T02:03:10;7.40;;;2.45;;
82372;SDS011;72000;42.828;23.382;2024-01-07T02:05:36;6.05;;;2.30;;
82372;SDS011;72000;42.828;23.382;2024-01-07T02:08:02;6.25;;;2.00;;
82372;SDS011;72000;42.828;23.382;2024-01-07T02:10:27;7.18;;;2.10;;
82372;SDS011;72000;42.828;23.382;2024-01-07T02:12:59;5.85;;;2.10;;
82372;SDS011;72000;42.828;23.382;2024-01-07T02:15:28;7.65;;;2.20;;
82372;SDS011;72000;42.828;23.382;2024-01-07T02:17:55;6.03;;;2.25;;
82372;SDS011;72000;42.828;23.382;2024-01-07T02:20:20;6.40;;;1.92;;
82372;SDS011;72000;42.828;23.382;2024-01-07T02:22:46;5.25;;;1.92;;
82372;SDS011;72000;42.828;23.382;2024-01-07T02:25:11;4.55;;;1.90;;
82372;SDS011;72000;42.828;23.382;2024-01-07T02:27:37;6.78;;;2.00;;
82372;SDS011;72000;42.828;23.382;2024-01-07T02:30:02;7.88;;;2.20;;
82372;SDS011;72000;42.828;23.382;2024-01-07T02:32:28;7.70;;;2.10;;
82372;SDS011;72000;42.828;23.382;2024-01-07T02:34:57;5.55;;;1.92;;
82372;SDS011;72000;42.828;23.382;2024-01-07T02:37:23;4.93;;;2.10;;
82372;SDS011;72000;42.828;23.382;2024-01-07T02:39:48;5.78;;;2.35;;
82372;SDS011;72000;42.828;23.382;2024-01-07T02:42:14;7.55;;;2.80;;
82372;SDS011;72000;42.828;23.382;2024-01-07T02:44:39;6.65;;;2.63;;
82372;SDS011;72000;42.828;23.382;2024-01-07T02:47:05;7.75;;;2.60;;
82372;SDS011;72000;42.828;23.382;2024-01-07T02:49:31;11.95;;;3.58;;
82372;SDS011;72000;42.828;23.382;2024-01-07T02:51:56;9.73;;;2.92;;
82372;SDS011;72000;42.828;23.382;2024-01-07T02:54:22;8.80;;;3.10;;
82372;SDS011;72000;42.828;23.382;2024-01-07T02:56:47;8.43;;;3.30;;
82372;SDS011;72000;42.828;23.382;2024-01-07T02:59:13;6.85;;;2.67;;
82372;SDS011;72000;42.828;23.382;2024-01-07T03:01:38;8.82;;;2.72;;
82372;SDS011;72000;42.828;23.382;2024-01-07T03:04:11;5.57;;;2.40;;
82372;SDS011;72000;42.828;23.382;2024-01-07T03:06:38;6.45;;;2.15;;
82372;SDS011;72000;42.828;23.382;2024-01-07T03:09:03;7.30;;;2.30;;
82372;SDS011;72000;42.828;23.382;2024-01-07T03:11:29;5.95;;;2.08;;
82372;SDS011;72000;42.828;23.382;2024-01-07T03:13:55;6.85;;;2.17;;
82372;SDS011;72000;42.828;23.382;2024-01-07T03:16:22;5.68;;;1.90;;
82372;SDS011;72000;42.828;23.382;2024-01-07T03:18:48;6.65;;;2.10;;
82372;SDS011;72000;42.828;23.382;2024-01-07T03:21:17;6.13;;;2.00;;
82372;SDS011;72000;42.828;23.382;2024-01-07T03:23:47;7.70;;;1.98;;
82372;SDS011;72000;42.828;23.382;2024-01-07T03:26:13;5.68;;;1.98;;
82372;SDS011;72000;42.828;23.382;2024-01-07T03:28:39;6.03;;;2.03;;
82372;SDS011;72000;42.828;23.382;2024-01-07T03:31:07;5.80;;;2.25;;
82372;SDS011;72000;42.828;23.382;2024-01-07T03:33:33;5.45;;;2.00;;
82372;SDS011;72000;42.828;23.382;2024-01-07T03:35:59;7.97;;;2.15;;
82372;SDS011;72000;42.828;23.382;2024-01-07T03:38:25;5.07;;;1.90;;
82372;SDS011;72000;42.828;23.382;2024-01-07T03:40:50;7.80;;;2.40;;
82372;SDS011;72000;42.828;23.382;2024-01-07T03:43:16;6.30;;;2.42;;
82372;SDS011;72000;42.828;23.382;2024-01-07T03:45:42;7.28;;;2.45;;
82372;SDS011;72000;42.828;23.382;2024-01-07T03:50:34;6.88;;;2.55;;
82372;SDS011;72000;42.828;23.382;2024-01-07T03:52:59;9.10;;;3.13;;
82372;SDS011;72000;42.828;23.382;2024-01-07T03:55:25;10.48;;;3.90;;
82372;SDS011;72000;42.828;23.382;2024-01-07T03:57:50;11.30;;;4.43;;
82372;SDS011;72000;42.828;23.382;2024-01-07T04:00:16;10.32;;;4.00;;
82372;SDS011;72000;42.828;23.382;2024-01-07T04:02:42;10.90;;;4.28;;
82372;SDS011;72000;42.828;23.382;2024-01-07T04:05:09;11.02;;;4.82;;
82372;SDS011;72000;42.828;23.382;2024-01-07T04:07:34;13.43;;;4.18;;
82372;SDS011;72000;42.828;23.382;2024-01-07T04:10:00;11.43;;;5.10;;
82372;SDS011;72000;42.828;23.382;2024-01-07T04:12:25;14.32;;;5.07;;
82372;SDS011;72000;42.828;23.382;2024-01-07T04:14:51;11.55;;;5.05;;
82372;SDS011;72000;42.828;23.382;2024-01-07T04:17:17;14.65;;;5.72;;
82372;SDS011;72000;42.828;23.382;2024-01-07T04:19:42;10.18;;;4.65;;
82372;SDS011;72000;42.828;23.382;2024-01-07T04:22:08;12.20;;;5.18;;
82372;SDS011;72000;42.828;23.382;2024-01-07T04:24:33;11.70;;;5.65;;
82372;SDS011;72000;42.828;23.382;2024-01-07T04:26:59;13.32;;;5.75;;
82372;SDS011;72000;42.828;23.382;2024-01-07T04:29:24;14.70;;;5.55;;
82372;SDS011;72000;42.828;23.382;2024-01-07T04:31:50;12.65;;;5.82;;
82372;SDS011;72000;42.828;23.382;2024-01-07T04:34:16;13.48;;;5.75;;
82372;SDS011;72000;42.828;23.382;2024-01-07T04:36:41;13.25;;;5.65;;
82372;SDS011;72000;42.828;23.382;2024-01-07T04:39:08;10.32;;;4.85;;
82372;SDS011;72000;42.828;23.382;2024-01-07T04:44:00;12.48;;;5.03;;
82372;SDS011;72000;42.828;23.382;2024-01-07T04:46:26;11.25;;;4.80;;
82372;SDS011;72000;42.828;23.382;2024-01-07T04:48:51;10.68;;;4.20;;
82372;SDS011;72000;42.828;23.382;2024-01-07T04:51:17;10.50;;;4.28;;
82372;SDS011;72000;42.828;23.382;2024-01-07T04:53:42;11.05;;;4.00;;
82372;SDS011;72000;42.828;23.382;2024-01-07T04:56:08;9.73;;;3.90;;
82372;SDS011;72000;42.828;23.382;2024-01-07T04:58:34;8.35;;;3.60;;
82372;SDS011;72000;42.828;23.382;2024-01-07T05:00:59;7.95;;;3.55;;
82372;SDS011;72000;42.828;23.382;2024-01-07T05:03:25;11.82;;;3.55;;
82372;SDS011;72000;42.828;23.382;2024-01-07T05:05:51;7.97;;;3.25;;
82372;SDS011;72000;42.828;23.382;2024-01-07T05:08:16;9.93;;;3.20;;
82372;SDS011;72000;42.828;23.382;2024-01-07T05:10:42;8.50;;;3.40;;
82372;SDS011;72000;42.828;23.382;2024-01-07T05:13:07;7.78;;;3.15;;
82372;SDS011;72000;42.828;23.382;2024-01-07T05:15:33;6.60;;;2.88;;
82372;SDS011;72000;42.828;23.382;2024-01-07T05:17:58;7.55;;;3.05;;
82372;SDS011;72000;42.828;23.382;2024-01-07T05:20:24;6.65;;;2.63;;
82372;SDS011;72000;42.828;23.382;2024-01-07T05:22:49;6.43;;;2.70;;
82372;SDS011;72000;42.828;23.382;2024-01-07T05:25:15;8.07;;;2.28;;
82372;SDS011;72000;42.828;23.382;2024-01-07T05:27:41;6.47;;;2.40;;
82372;SDS011;72000;42.828;23.382;2024-01-07T05:30:06;5.57;;;2.25;;
82372;SDS011;72000;42.828;23.382;2024-01-07T05:32:33;8.48;;;2.63;;
82372;SDS011;72000;42.828;23.382;2024-01-07T05:34:59;7.22;;;2.90;;
82372;SDS011;72000;42.828;23.382;2024-01-07T05:37:24;5.50;;;2.22;;
82372;SDS011;72000;42.828;23.382;2024-01-07T05:39:50;7.82;;;2.40;;
82372;SDS011;72000;42.828;23.382;2024-01-07T05:42:15;5.38;;;2.03;;
82372;SDS011;72000;42.828;23.382;2024-01-07T05:44:41;4.97;;;1.95;;
82372;SDS011;72000;42.828;23.382;2024-01-07T05:47:07;4.50;;;1.92;;
82372;SDS011;72000;42.828;23.382;2024-01-07T05:49:32;5.55;;;2.67;;
82372;SDS011;72000;42.828;23.382;2024-01-07T05:51:58;12.35;;;4.68;;
82372;SDS011;72000;42.828;23.382;2024-01-07T05:54:23;11.07;;;4.93;;
82372;SDS011;72000;42.828;23.382;2024-01-07T05:56:49;12.60;;;5.05;;
82372;SDS011;72000;42.828;23.382;2024-01-07T05:59:14;53.78;;;21.15;;
82372;SDS011;72000;42.828;23.382;2024-01-07T06:01:40;21.10;;;9.45;;
82372;SDS011;72000;42.828;23.382;2024-01-07T06:04:05;19.38;;;8.50;;
82372;SDS011;72000;42.828;23.382;2024-01-07T06:06:31;20.15;;;8.50;;
82372;SDS011;72000;42.828;23.382;2024-01-07T06:08:58;18.67;;;8.75;;
82372;SDS011;72000;42.828;23.382;2024-01-07T06:11:24;14.25;;;6.80;;
82372;SDS011;72000;42.828;23.382;2024-01-07T06:13:50;11.23;;;5.13;;
82372;SDS011;72000;42.828;23.382;2024-01-07T06:16:15;10.55;;;4.55;;
82372;SDS011;72000;42.828;23.382;2024-01-07T06:18:41;8.98;;;3.90;;
82372;SDS011;72000;42.828;23.382;2024-01-07T06:21:06;9.05;;;3.80;;
82372;SDS011;72000;42.828;23.382;2024-01-07T06:23:32;10.07;;;4.40;;
82372;SDS011;72000;42.828;23.382;2024-01-07T06:25:58;9.93;;;3.97;;
82372;SDS011;72000;42.828;23.382;2024-01-07T06:28:24;8.60;;;3.70;;
82372;SDS011;72000;42.828;23.382;2024-01-07T06:30:49;9.68;;;3.75;;
82372;SDS011;72000;42.828;23.382;2024-01-07T06:33:15;8.23;;;3.33;;
82372;SDS011;72000;42.828;23.382;2024-01-07T06:35:40;6.30;;;2.88;;
82372;SDS011;72000;42.828;23.382;2024-01-07T06:38:06;5.78;;;2.45;;
82372;SDS011;72000;42.828;23.382;2024-01-07T06:40:31;7.15;;;2.70;;
82372;SDS011;72000;42.828;23.382;2024-01-07T06:42:57;11.98;;;4.28;;
82372;SDS011;72000;42.828;23.382;2024-01-07T06:45:23;11.95;;;4.70;;
82372;SDS011;72000;42.828;23.382;2024-01-07T06:47:49;7.72;;;3.35;;
82372;SDS011;72000;42.828;23.382;2024-01-07T06:50:14;8.27;;;3.55;;
82372;SDS011;72000;42.828;23.382;2024-01-07T06:52:40;8.90;;;3.47;;
82372;SDS011;72000;42.828;23.382;2024-01-07T06:55:05;7.65;;;3.08;;
82372;SDS011;72000;42.828;23.382;2024-01-07T06:57:32;8.40;;;3.30;;
82372;SDS011;72000;42.828;23.382;2024-01-07T06:59:57;7.47;;;3.22;;
82372;SDS011;72000;42.828;23.382;2024-01-07T07:02:23;11.88;;;4.30;;
82372;SDS011;72000;42.828;23.382;2024-01-07T07:04:48;14.82;;;4.95;;
82372;SDS011;72000;42.828;23.382;2024-01-07T07:07:15;14.55;;;4.70;;
82372;SDS011;72000;42.828;23.382;2024-01-07T07:09:41;10.60;;;3.22;;
82372;SDS011;72000;42.828;23.382;2024-01-07T07:12:07;4.28;;;1.88;;
82372;SDS011;72000;42.828;23.382;2024-01-07T07:14:33;5.18;;;2.15;;
82372;SDS011;72000;42.828;23.382;2024-01-07T07:16:58;5.68;;;1.70;;
82372;SDS011;72000;42.828;23.382;2024-01-07T07:19:24;4.47;;;1.70;;
82372;SDS011;72000;42.828;23.382;2024-01-07T07:21:50;4.32;;;1.60;;
82372;SDS011;72000;42.828;23.382;2024-01-07T07:24:15;3.20;;;1.40;;
82372;SDS011;72000;42.828;23.382;2024-01-07T07:26:41;5.13;;;1.60;;
82372;SDS011;72000;42.828;23.382;2024-01-07T07:29:08;39.88;;;16.77;;
82372;SDS011;72000;42.828;23.382;2024-01-07T07:31:36;55.00;;;23.23;;
82372;SDS011;72000;42.828;23.382;2024-01-07T07:34:05;31.65;;;13.38;;
82372;SDS011;72000;42.828;23.382;2024-01-07T07:36:30;15.10;;;5.40;;
82372;SDS011;72000;42.828;23.382;2024-01-07T07:38:56;13.43;;;5.13;;
82372;SDS011;72000;42.828;23.382;2024-01-07T07:41:22;8.65;;;3.53;;
82372;SDS011;72000;42.828;23.382;2024-01-07T07:43:47;7.47;;;3.22;;
82372;SDS011;72000;42.828;23.382;2024-01-07T07:46:13;5.35;;;1.70;;
82372;SDS011;72000;42.828;23.382;2024-01-07T07:48:41;4.97;;;2.20;;
82372;SDS011;72000;42.828;23.382;2024-01-07T07:51:06;4.80;;;2.28;;
82372;SDS011;72000;42.828;23.382;2024-01-07T07:53:32;5.95;;;2.85;;
82372;SDS011;72000;42.828;23.382;2024-01-07T07:55:58;5.22;;;2.35;;
82372;SDS011;72000;42.828;23.382;2024-01-07T07:58:24;6.50;;;2.00;;
82372;SDS011;72000;42.828;23.382;2024-01-07T08:00:49;5.20;;;1.50;;
82372;SDS011;72000;42.828;23.382;2024-01-07T08:03:15;4.60;;;1.70;;
82372;SDS011;72000;42.828;23.382;2024-01-07T08:05:41;9.10;;;2.53;;
82372;SDS011;72000;42.828;23.382;2024-01-07T08:08:07;6.90;;;2.30;;
82372;SDS011;72000;42.828;23.382;2024-01-07T08:10:35;7.13;;;2.30;;
82372;SDS011;72000;42.828;23.382;2024-01-07T08:13:01;4.15;;;1.92;;
82372;SDS011;72000;42.828;23.382;2024-01-07T08:15:27;4.60;;;1.83;;
82372;SDS011;72000;42.828;23.382;2024-01-07T08:17:52;4.88;;;2.20;;
82372;SDS011;72000;42.828;23.382;2024-01-07T08:20:18;6.03;;;1.95;;
82372;SDS011;72000;42.828;23.382;2024-01-07T08:22:44;3.63;;;1.45;;
82372;SDS011;72000;42.828;23.382;2024-01-07T08:25:13;3.90;;;1.52;;
82372;SDS011;72000;42.828;23.382;2024-01-07T08:27:40;3.88;;;1.52;;
82372;SDS011;72000;42.828;23.382;2024-01-07T08:30:09;3.78;;;1.40;;
82372;SDS011;72000;42.828;23.382;2024-01-07T08:32:40;4.38;;;1.60;;
82372;SDS011;72000;42.828;23.382;2024-01-07T08:35:06;7.70;;;2.70;;
82372;SDS011;72000;42.828;23.382;2024-01-07T08:37:32;7.78;;;2.60;;
82372;SDS011;72000;42.828;23.382;2024-01-07T08:40:01;4.47;;;1.75;;
82372;SDS011;72000;42.828;23.382;2024-01-07T08:42:27;5.05;;;2.25;;
82372;SDS011;72000;42.828;23.382;2024-01-07T08:44:55;5.25;;;1.98;;
82372;SDS011;72000;42.828;23.382;2024-01-07T08:47:24;6.20;;;2.88;;
82372;SDS011;72000;42.828;23.382;2024-01-07T08:49:50;7.68;;;3.00;;
82372;SDS011;72000;42.828;23.382;2024-01-07T08:52:18;7.07;;;2.53;;
82372;SDS011;72000;42.828;23.382;2024-01-07T08:54:44;4.35;;;1.63;;
82372;SDS011;72000;42.828;23.382;2024-01-07T08:57:10;4.88;;;1.60;;
82372;SDS011;72000;42.828;23.382;2024-01-07T08:59:35;2.80;;;1.25;;
82372;SDS011;72000;42.828;23.382;2024-01-07T09:02:04;4.30;;;1.20;;
82372;SDS011;72000;42.828;23.382;2024-01-07T09:04:30;2.58;;;1.10;;
82372;SDS011;72000;42.828;23.382;2024-01-07T09:06:55;3.63;;;1.15;;
82372;SDS011;72000;42.828;23.382;2024-01-07T09:09:21;3.80;;;1.05;;
82372;SDS011;72000;42.828;23.382;2024-01-07T09:11:47;2.83;;;1.08;;
82372;SDS011;72000;42.828;23.382;2024-01-07T09:14:13;4.00;;;1.10;;
82372;SDS011;72000;42.828;23.382;2024-01-07T09:16:42;3.33;;;1.35;;
82372;SDS011;72000;42.828;23.382;2024-01-07T09:19:08;4.38;;;1.20;;
82372;SDS011;72000;42.828;23.382;2024-01-07T09:21:33;3.47;;;1.10;;
82372;SDS011;72000;42.828;23.382;2024-01-07T09:23:59;4.93;;;1.33;;
82372;SDS011;72000;42.828;23.382;2024-01-07T09:26:24;5.10;;;1.20;;
82372;SDS011;72000;42.828;23.382;2024-01-07T09:28:50;2.85;;;1.10;;
82372;SDS011;72000;42.828;23.382;2024-01-07T09:31:17;5.53;;;1.02;;
82372;SDS011;72000;42.828;23.382;2024-01-07T09:33:45;5.43;;;1.45;;
82372;SDS011;72000;42.828;23.382;2024-01-07T09:36:11;2.25;;;1.00;;
82372;SDS011;72000;42.828;23.382;2024-01-07T09:38:39;3.70;;;1.30;;
82372;SDS011;72000;42.828;23.382;2024-01-07T09:41:05;4.25;;;1.10;;
82372;SDS011;72000;42.828;23.382;2024-01-07T09:43:31;4.85;;;1.30;;
82372;SDS011;72000;42.828;23.382;2024-01-07T09:45:56;5.53;;;1.42;;
82372;SDS011;72000;42.828;23.382;2024-01-07T09:48:23;8.73;;;2.88;;
82372;SDS011;72000;42.828;23.382;2024-01-07T09:50:48;10.18;;;4.10;;
82372;SDS011;72000;42.828;23.382;2024-01-07T09:53:15;11.05;;;4.15;;
82372;SDS011;72000;42.828;23.382;2024-01-07T09:58:16;6.80;;;2.20;;
82372;SDS011;72000;42.828;23.382;2024-01-07T10:00:42;7.72;;;2.22;;
82372;SDS011;72000;42.828;23.382;2024-01-07T10:03:07;5.20;;;2.10;;
82372;SDS011;72000;42.828;23.382;2024-01-07T10:05:33;9.13;;;2.00;;
82372;SDS011;72000;42.828;23.382;2024-01-07T10:07:59;6.22;;;2.05;;
82372;SDS011;72000;42.828;23.382;2024-01-07T10:10:25;4.13;;;1.70;;
82372;SDS011;72000;42.828;23.382;2024-01-07T10:12:50;5.28;;;1.50;;
82372;SDS011;72000;42.828;23.382;2024-01-07T10:15:18;4.18;;;1.20;;
82372;SDS011;72000;42.828;23.382;2024-01-07T10:17:44;6.25;;;1.20;;
82372;SDS011;72000;42.828;23.382;2024-01-07T10:20:10;2.75;;;1.10;;
82372;SDS011;72000;42.828;23.382;2024-01-07T10:22:37;5.00;;;1.00;;
82372;SDS011;72000;42.828;23.382;2024-01-07T10:27:28;9.32;;;2.67;;
82372;SDS011;72000;42.828;23.382;2024-01-07T10:29:55;7.53;;;2.50;;
82372;SDS011;72000;42.828;23.382;2024-01-07T10:32:23;7.85;;;2.55;;
82372;SDS011;72000;42.828;23.382;2024-01-07T10:34:49;7.32;;;2.63;;
82372;SDS011;72000;42.828;23.382;2024-01-07T10:37:16;7.57;;;2.40;;
82372;SDS011;72000;42.828;23.382;2024-01-07T10:39:41;6.07;;;2.50;;
82372;SDS011;72000;42.828;23.382;2024-01-07T10:42:07;6.95;;;2.20;;
82372;SDS011;72000;42.828;23.382;2024-01-07T10:44:33;5.88;;;1.85;;
82372;SDS011;72000;42.828;23.382;2024-01-07T10:46:59;4.47;;;1.40;;
82372;SDS011;72000;42.828;23.382;2024-01-07T10:49:25;5.15;;;1.10;;
82372;SDS011;72000;42.828;23.382;2024-01-07T10:54:24;5.10;;;1.10;;
82372;SDS011;72000;42.828;23.382;2024-01-07T10:56:53;4.57;;;0.90;;
82372;SDS011;72000;42.828;23.382;2024-01-07T10:59:23;4.80;;;0.90;;
82372;SDS011;72000;42.828;23.382;2024-01-07T11:01:49;4.25;;;0.80;;
82372;SDS011;72000;42.828;23.382;2024-01-07T11:04:20;5.93;;;1.20;;
82372;SDS011;72000;42.828;23.382;2024-01-07T11:06:55;3.92;;;1.02;;
82372;SDS011;72000;42.828;23.382;2024-01-07T11:09:38;3.67;;;0.88;;
82372;SDS011;72000;42.828;23.382;2024-01-07T11:12:13;4.93;;;1.20;;
82372;SDS011;72000;42.828;23.382;2024-01-07T11:14:40;5.00;;;1.20;;
82372;SDS011;72000;42.828;23.382;2024-01-07T11:17:10;2.90;;;0.88;;
82372;SDS011;72000;42.828;23.382;2024-01-07T11:19:36;5.75;;;1.10;;
82372;SDS011;72000;42.828;23.382;2024-01-07T11:24:53;3.17;;;1.00;;
82372;SDS011;72000;42.828;23.382;2024-01-07T11:29:55;2.95;;;0.95;;
82372;SDS011;72000;42.828;23.382;2024-01-07T11:32:24;3.70;;;1.00;;
82372;SDS011;72000;42.828;23.382;2024-01-07T11:34:57;2.45;;;0.90;;
82372;SDS011;72000;42.828;23.382;2024-01-07T11:37:24;3.33;;;0.90;;
82372;SDS011;72000;42.828;23.382;2024-01-07T11:39:51;3.10;;;0.90;;
82372;SDS011;72000;42.828;23.382;2024-01-07T11:42:20;1.70;;;0.80;;
82372;SDS011;72000;42.828;23.382;2024-01-07T11:44:50;2.58;;;0.93;;
82372;SDS011;72000;42.828;23.382;2024-01-07T11:47:17;2.90;;;0.88;;
82372;SDS011;72000;42.828;23.382;2024-01-07T11:49:43;4.15;;;1.40;;
82372;SDS011;72000;42.828;23.382;2024-01-07T11:52:09;3.38;;;1.00;;
82372;SDS011;72000;42.828;23.382;2024-01-07T11:54:36;4.32;;;1.20;;
82372;SDS011;72000;42.828;23.382;2024-01-07T11:57:03;5.15;;;1.42;;
82372;SDS011;72000;42.828;23.382;2024-01-07T11:59:29;3.00;;;1.00;;
82372;SDS011;72000;42.828;23.382;2024-01-07T12:01:55;4.70;;;1.20;;
82372;SDS011;72000;42.828;23.382;2024-01-07T12:04:21;4.32;;;1.30;;
82372;SDS011;72000;42.828;23.382;2024-01-07T12:06:47;3.63;;;1.30;;
82372;SDS011;72000;42.828;23.382;2024-01-07T12:09:17;6.60;;;1.20;;
82372;SDS011;72000;42.828;23.382;2024-01-07T12:11:43;4.38;;;1.30;;
82372;SDS011;72000;42.828;23.382;2024-01-07T12:14:09;4.75;;;1.20;;
82372;SDS011;72000;42.828;23.382;2024-01-07T12:16:41;3.25;;;1.10;;
82372;SDS011;72000;42.828;23.382;2024-01-07T12:19:08;4.90;;;1.20;;
82372;SDS011;72000;42.828;23.382;2024-01-07T12:21:34;4.85;;;1.52;;
82372;SDS011;72000;42.828;23.382;2024-01-07T12:24:00;6.15;;;1.45;;
82372;SDS011;72000;42.828;23.382;2024-01-07T12:26:27;4.00;;;1.33;;
82372;SDS011;72000;42.828;23.382;2024-01-07T12:28:53;4.38;;;1.50;;
82372;SDS011;72000;42.828;23.382;2024-01-07T12:31:20;4.97;;;1.60;;
82372;SDS011;72000;42.828;23.382;2024-01-07T12:33:47;4.35;;;1.85;;
82372;SDS011;72000;42.828;23.382;2024-01-07T12:36:12;5.75;;;1.60;;
82372;SDS011;72000;42.828;23.382;2024-01-07T12:38:41;3.88;;;1.60;;
82372;SDS011;72000;42.828;23.382;2024-01-07T12:41:07;4.15;;;1.40;;
82372;SDS011;72000;42.828;23.382;2024-01-07T12:43:33;4.30;;;1.40;;
82372;SDS011;72000;42.828;23.382;2024-01-07T12:46:02;6.53;;;1.50;;
82372;SDS011;72000;42.828;23.382;2024-01-07T12:48:30;3.88;;;1.50;;
82372;SDS011;72000;42.828;23.382;2024-01-07T12:50:56;3.42;;;1.35;;
82372;SDS011;72000;42.828;23.382;2024-01-07T12:53:21;4.55;;;1.77;;
82372;SDS011;72000;42.828;23.382;2024-01-07T12:55:47;3.70;;;1.30;;
82372;SDS011;72000;42.828;23.382;2024-01-07T12:58:12;4.95;;;1.60;;
82372;SDS011;72000;42.828;23.382;2024-01-07T13:00:38;7.55;;;1.65;;
82372;SDS011;72000;42.828;23.382;2024-01-07T13:03:06;4.55;;;1.45;;
82372;SDS011;72000;42.828;23.382;2024-01-07T13:05:33;4.88;;;1.52;;
82372;SDS011;72000;42.828;23.382;2024-01-07T13:07:59;4.93;;;1.90;;
82372;SDS011;72000;42.828;23.382;2024-01-07T13:10:25;4.80;;;1.88;;
82372;SDS011;72000;42.828;23.382;2024-01-07T13:12:50;7.60;;;2.20;;
82372;SDS011;72000;42.828;23.382;2024-01-07T13:15:16;5.05;;;2.17;;
82372;SDS011;72000;42.828;23.382;2024-01-07T13:17:42;6.63;;;2.20;;
82372;SDS011;72000;42.828;23.382;2024-01-07T13:20:08;4.80;;;2.08;;
82372;SDS011;72000;42.828;23.382;2024-01-07T13:22:39;5.25;;;1.75;;
82372;SDS011;72000;42.828;23.382;2024-01-07T13:25:06;5.78;;;1.88;;
82372;SDS011;72000;42.828;23.382;2024-01-07T13:27:32;7.57;;;2.60;;
82372;SDS011;72000;42.828;23.382;2024-01-07T13:29:58;4.00;;;1.70;;
82372;SDS011;72000;42.828;23.382;2024-01-07T13:32:24;5.05;;;1.73;;
82372;SDS011;72000;42.828;23.382;2024-01-07T13:34:49;4.55;;;1.85;;
82372;SDS011;72000;42.828;23.382;2024-01-07T13:37:15;6.03;;;1.60;;
82372;SDS011;72000;42.828;23.382;2024-01-07T13:39:41;4.03;;;1.63;;
82372;SDS011;72000;42.828;23.382;2024-01-07T13:42:07;6.15;;;1.90;;
82372;SDS011;72000;42.828;23.382;2024-01-07T13:44:35;7.85;;;1.98;;
82372;SDS011;72000;42.828;23.382;2024-01-07T13:47:01;4.43;;;1.83;;
82372;SDS011;72000;42.828;23.382;2024-01-07T13:49:27;5.35;;;1.60;;
82372;SDS011;72000;42.828;23.382;2024-01-07T13:51:53;4.95;;;1.45;;
82372;SDS011;72000;42.828;23.382;2024-01-07T13:54:20;4.57;;;1.77;;
82372;SDS011;72000;42.828;23.382;2024-01-07T13:56:46;4.32;;;1.95;;
82372;SDS011;72000;42.828;23.382;2024-01-07T13:59:11;7.20;;;2.80;;
82372;SDS011;72000;42.828;23.382;2024-01-07T14:01:37;7.32;;;2.50;;
82372;SDS011;72000;42.828;23.382;2024-01-07T14:04:04;6.70;;;2.30;;
82372;SDS011;72000;42.828;23.382;2024-01-07T14:06:30;7.03;;;2.08;;
82372;SDS011;72000;42.828;23.382;2024-01-07T14:08:59;5.70;;;2.05;;
82372;SDS011;72000;42.828;23.382;2024-01-07T14:11:25;7.30;;;1.95;;
82372;SDS011;72000;42.828;23.382;2024-01-07T14:13:53;6.65;;;2.10;;
82372;SDS011;72000;42.828;23.382;2024-01-07T14:16:19;6.40;;;2.25;;
82372;SDS011;72000;42.828;23.382;2024-01-07T14:18:44;6.35;;;2.25;;
82372;SDS011;72000;42.828;23.382;2024-01-07T14:21:10;7.35;;;2.20;;
82372;SDS011;72000;42.828;23.382;2024-01-07T14:23:35;6.13;;;2.30;;
82372;SDS011;72000;42.828;23.382;2024-01-07T14:26:01;7.53;;;2.13;;
82372;SDS011;72000;42.828;23.382;2024-01-07T14:28:28;6.28;;;1.75;;
82372;SDS011;72000;42.828;23.382;2024-01-07T14:30:54;5.85;;;1.60;;
82372;SDS011;72000;42.828;23.382;2024-01-07T14:33:19;3.72;;;1.42;;
82372;SDS011;72000;42.828;23.382;2024-01-07T14:35:48;5.05;;;1.50;;
82372;SDS011;72000;42.828;23.382;2024-01-07T14:38:14;5.05;;;1.88;;
82372;SDS011;72000;42.828;23.382;2024-01-07T14:40:39;4.10;;;1.55;;
82372;SDS011;72000;42.828;23.382;2024-01-07T14:43:09;5.80;;;2.05;;
82372;SDS011;72000;42.828;23.382;2024-01-07T14:45:38;6.63;;;2.08;;
82372;SDS011;72000;42.828;23.382;2024-01-07T14:48:03;5.72;;;1.60;;